sensor_id;sensor_type;location;lat;lon;timestamp;temperature;humidity
26907;DHT22;14472;56.880;16.658;2022-07-21T00:01:55;21.70;1.00
26907;DHT22;14472;56.880;16.658;2022-07-21T00:04:21;21.70;1.00
26907;DHT22;14472;56.880;16.658;2022-07-21T00:06:48;21.70;1.00
26907;DHT22;14472;56.880;16.658;2022-07-21T00:09:14;21.60;1.00
26907;DHT22;14472;56.880;16.658;2022-07-21T00:11:40;21.60;1.00
26907;DHT22;14472;56.880;16.658;2022-07-21T00:14:07;21.60;1.00
26907;DHT22;14472;56.880;16.658;2022-07-21T00:16:34;21.60;1.00
26907;DHT22;14472;56.880;16.658;2022-07-21T00:19:00;21.50;1.00
26907;DHT22;14472;56.880;16.658;2022-07-21T00:21:27;21.50;1.00
26907;DHT22;14472;56.880;16.658;2022-07-21T00:23:54;21.50;1.00
26907;DHT22;14472;56.880;16.658;2022-07-21T00:26:20;21.40;1.00
26907;DHT22;14472;56.880;16.658;2022-07-21T00:28:46;21.40;1.00
26907;DHT22;14472;56.880;16.658;2022-07-21T00:31:12;21.40;1.00
26907;DHT22;14472;56.880;16.658;2022-07-21T00:33:39;21.40;1.00
26907;DHT22;14472;56.880;16.658;2022-07-21T00:36:06;21.40;1.00
26907;DHT22;14472;56.880;16.658;2022-07-21T00:38:31;21.40;1.00
26907;DHT22;14472;56.880;16.658;2022-07-21T00:40:58;21.40;1.00
26907;DHT22;14472;56.880;16.658;2022-07-21T00:43:24;21.40;1.00
26907;DHT22;14472;56.880;16.658;2022-07-21T00:45:53;21.30;1.00
26907;DHT22;14472;56.880;16.658;2022-07-21T00:48:19;21.30;1.00
26907;DHT22;14472;56.880;16.658;2022-07-21T00:50:46;21.40;1.00
26907;DHT22;14472;56.880;16.658;2022-07-21T00:53:13;21.40;1.00
26907;DHT22;14472;56.880;16.658;2022-07-21T00:55:42;21.40;1.00
26907;DHT22;14472;56.880;16.658;2022-07-21T00:58:08;21.40;1.00
26907;DHT22;14472;56.880;16.658;2022-07-21T01:00:35;21.40;1.00
26907;DHT22;14472;56.880;16.658;2022-07-21T01:03:01;21.40;1.00
26907;DHT22;14472;56.880;16.658;2022-07-21T01:05:26;21.40;1.00
26907;DHT22;14472;56.880;16.658;2022-07-21T01:07:54;21.40;1.00
26907;DHT22;14472;56.880;16.658;2022-07-21T01:10:23;21.40;1.00
26907;DHT22;14472;56.880;16.658;2022-07-21T01:12:49;21.40;1.00
26907;DHT22;14472;56.880;16.658;2022-07-21T01:15:19;21.40;1.00
26907;DHT22;14472;56.880;16.658;2022-07-21T01:17:45;21.40;1.00
26907;DHT22;14472;56.880;16.658;2022-07-21T01:20:14;21.40;1.00
26907;DHT22;14472;56.880;16.658;2022-07-21T01:22:42;21.40;1.00
26907;DHT22;14472;56.880;16.658;2022-07-21T01:25:08;21.40;1.00
26907;DHT22;14472;56.880;16.658;2022-07-21T01:27:34;21.40;1.00
26907;DHT22;14472;56.880;16.658;2022-07-21T01:30:00;21.50;1.00
26907;DHT22;14472;56.880;16.658;2022-07-21T01:32:26;21.50;1.00
26907;DHT22;14472;56.880;16.658;2022-07-21T01:34:53;21.50;1.00
26907;DHT22;14472;56.880;16.658;2022-07-21T01:37:23;21.50;1.00
26907;DHT22;14472;56.880;16.658;2022-07-21T01:39:52;21.50;1.00
26907;DHT22;14472;56.880;16.658;2022-07-21T01:42:37;21.50;1.00
26907;DHT22;14472;56.880;16.658;2022-07-21T01:45:05;21.50;1.00
26907;DHT22;14472;56.880;16.658;2022-07-21T01:47:31;21.50;1.00
26907;DHT22;14472;56.880;16.658;2022-07-21T01:49:58;21.50;1.00
26907;DHT22;14472;56.880;16.658;2022-07-21T01:52:24;21.50;1.00
26907;DHT22;14472;56.880;16.658;2022-07-21T01:54:50;21.50;1.00
26907;DHT22;14472;56.880;16.658;2022-07-21T01:57:17;21.50;1.00
26907;DHT22;14472;56.880;16.658;2022-07-21T01:59:45;21.50;1.00
26907;DHT22;14472;56.880;16.658;2022-07-21T02:02:10;21.50;1.00
26907;DHT22;14472;56.880;16.658;2022-07-21T02:04:36;21.50;1.00
26907;DHT22;14472;56.880;16.658;2022-07-21T02:07:05;21.50;1.00
26907;DHT22;14472;56.880;16.658;2022-07-21T02:09:31;21.50;1.00
26907;DHT22;14472;56.880;16.658;2022-07-21T02:11:58;21.50;1.00
26907;DHT22;14472;56.880;16.658;2022-07-21T02:14:24;21.40;1.00
26907;DHT22;14472;56.880;16.658;2022-07-21T02:16:49;21.50;1.00
26907;DHT22;14472;56.880;16.658;2022-07-21T02:19:15;21.50;1.00
26907;DHT22;14472;56.880;16.658;2022-07-21T02:21:41;21.50;1.00
26907;DHT22;14472;56.880;16.658;2022-07-21T02:24:07;21.50;1.00
26907;DHT22;14472;56.880;16.658;2022-07-21T02:26:33;21.50;1.00
26907;DHT22;14472;56.880;16.658;2022-07-21T02:28:58;21.50;1.00
26907;DHT22;14472;56.880;16.658;2022-07-21T02:31:24;21.50;1.00
26907;DHT22;14472;56.880;16.658;2022-07-21T02:33:50;21.50;1.00
26907;DHT22;14472;56.880;16.658;2022-07-21T02:36:16;21.60;1.00
26907;DHT22;14472;56.880;16.658;2022-07-21T02:38:42;21.60;1.00
26907;DHT22;14472;56.880;16.658;2022-07-21T02:41:08;21.60;1.00
26907;DHT22;14472;56.880;16.658;2022-07-21T02:43:34;21.60;1.00
26907;DHT22;14472;56.880;16.658;2022-07-21T02:46:00;21.60;1.00
26907;DHT22;14472;56.880;16.658;2022-07-21T02:48:26;21.60;1.00
26907;DHT22;14472;56.880;16.658;2022-07-21T02:50:53;21.60;1.00
26907;DHT22;14472;56.880;16.658;2022-07-21T02:53:21;21.60;1.00
26907;DHT22;14472;56.880;16.658;2022-07-21T02:55:50;21.60;1.00
26907;DHT22;14472;56.880;16.658;2022-07-21T02:58:24;21.60;1.00
26907;DHT22;14472;56.880;16.658;2022-07-21T03:00:59;21.60;1.00
26907;DHT22;14472;56.880;16.658;2022-07-21T03:03:28;21.60;1.00
26907;DHT22;14472;56.880;16.658;2022-07-21T03:05:54;21.70;1.00
26907;DHT22;14472;56.880;16.658;2022-07-21T03:08:21;21.60;1.00
26907;DHT22;14472;56.880;16.658;2022-07-21T03:10:49;21.70;1.00
26907;DHT22;14472;56.880;16.658;2022-07-21T03:13:15;21.70;1.00
26907;DHT22;14472;56.880;16.658;2022-07-21T03:15:41;21.70;1.00
26907;DHT22;14472;56.880;16.658;2022-07-21T03:18:07;21.70;1.00
26907;DHT22;14472;56.880;16.658;2022-07-21T03:20:36;21.70;1.00
26907;DHT22;14472;56.880;16.658;2022-07-21T03:23:02;21.70;1.00
26907;DHT22;14472;56.880;16.658;2022-07-21T03:25:27;21.70;1.00
26907;DHT22;14472;56.880;16.658;2022-07-21T03:27:54;21.70;1.00
26907;DHT22;14472;56.880;16.658;2022-07-21T03:30:19;21.70;1.00
26907;DHT22;14472;56.880;16.658;2022-07-21T03:32:47;21.70;1.00
26907;DHT22;14472;56.880;16.658;2022-07-21T03:35:13;21.70;1.00
26907;DHT22;14472;56.880;16.658;2022-07-21T03:37:44;21.70;1.00
26907;DHT22;14472;56.880;16.658;2022-07-21T03:40:13;21.70;1.00
26907;DHT22;14472;56.880;16.658;2022-07-21T03:42:40;21.70;1.00
26907;DHT22;14472;56.880;16.658;2022-07-21T03:45:07;21.70;1.00
26907;DHT22;14472;56.880;16.658;2022-07-21T03:47:35;21.70;1.00
26907;DHT22;14472;56.880;16.658;2022-07-21T03:50:01;21.70;1.00
26907;DHT22;14472;56.880;16.658;2022-07-21T03:52:28;21.70;1.00
26907;DHT22;14472;56.880;16.658;2022-07-21T03:54:54;21.80;1.00
26907;DHT22;14472;56.880;16.658;2022-07-21T03:57:38;21.80;1.00
26907;DHT22;14472;56.880;16.658;2022-07-21T04:00:10;21.80;1.00
26907;DHT22;14472;56.880;16.658;2022-07-21T04:02:36;21.80;1.00
26907;DHT22;14472;56.880;16.658;2022-07-21T04:05:03;21.90;1.00
26907;DHT22;14472;56.880;16.658;2022-07-21T04:07:29;21.90;1.00
26907;DHT22;14472;56.880;16.658;2022-07-21T04:09:56;21.90;1.00
26907;DHT22;14472;56.880;16.658;2022-07-21T04:12:28;21.90;1.00
26907;DHT22;14472;56.880;16.658;2022-07-21T04:14:55;21.90;1.00
26907;DHT22;14472;56.880;16.658;2022-07-21T04:17:21;21.90;1.00
26907;DHT22;14472;56.880;16.658;2022-07-21T04:19:48;22.00;1.00
26907;DHT22;14472;56.880;16.658;2022-07-21T04:22:14;22.00;1.00
26907;DHT22;14472;56.880;16.658;2022-07-21T04:24:41;22.00;1.00
26907;DHT22;14472;56.880;16.658;2022-07-21T04:27:07;22.10;1.00
26907;DHT22;14472;56.880;16.658;2022-07-21T04:29:33;22.00;1.00
26907;DHT22;14472;56.880;16.658;2022-07-21T04:31:59;22.10;1.00
26907;DHT22;14472;56.880;16.658;2022-07-21T04:34:26;22.10;1.00
26907;DHT22;14472;56.880;16.658;2022-07-21T04:36:54;22.20;1.00
26907;DHT22;14472;56.880;16.658;2022-07-21T04:39:19;22.20;1.00
26907;DHT22;14472;56.880;16.658;2022-07-21T04:41:45;22.20;1.00
26907;DHT22;14472;56.880;16.658;2022-07-21T04:44:11;22.20;1.00
26907;DHT22;14472;56.880;16.658;2022-07-21T04:46:38;22.30;1.00
26907;DHT22;14472;56.880;16.658;2022-07-21T04:49:05;22.30;1.00
26907;DHT22;14472;56.880;16.658;2022-07-21T04:51:31;22.30;1.00
26907;DHT22;14472;56.880;16.658;2022-07-21T04:53:57;22.40;1.00
26907;DHT22;14472;56.880;16.658;2022-07-21T04:56:23;22.40;1.00
26907;DHT22;14472;56.880;16.658;2022-07-21T04:58:48;22.50;1.00
26907;DHT22;14472;56.880;16.658;2022-07-21T05:01:14;22.50;1.00
26907;DHT22;14472;56.880;16.658;2022-07-21T05:03:43;22.50;1.00
26907;DHT22;14472;56.880;16.658;2022-07-21T05:06:12;22.60;1.00
26907;DHT22;14472;56.880;16.658;2022-07-21T05:08:38;22.60;1.00
26907;DHT22;14472;56.880;16.658;2022-07-21T05:11:04;22.70;1.00
26907;DHT22;14472;56.880;16.658;2022-07-21T05:13:31;22.70;1.00
26907;DHT22;14472;56.880;16.658;2022-07-21T05:15:58;22.80;1.00
26907;DHT22;14472;56.880;16.658;2022-07-21T05:18:25;22.80;1.00
26907;DHT22;14472;56.880;16.658;2022-07-21T05:20:51;22.90;1.00
26907;DHT22;14472;56.880;16.658;2022-07-21T05:23:18;22.90;1.00
26907;DHT22;14472;56.880;16.658;2022-07-21T05:25:44;23.00;1.00
26907;DHT22;14472;56.880;16.658;2022-07-21T05:28:10;23.00;1.00
26907;DHT22;14472;56.880;16.658;2022-07-21T05:30:36;23.00;1.00
26907;DHT22;14472;56.880;16.658;2022-07-21T05:33:02;23.10;1.00
26907;DHT22;14472;56.880;16.658;2022-07-21T05:35:28;23.10;1.00
26907;DHT22;14472;56.880;16.658;2022-07-21T05:37:54;23.20;1.00
26907;DHT22;14472;56.880;16.658;2022-07-21T05:40:19;23.20;1.00
26907;DHT22;14472;56.880;16.658;2022-07-21T05:42:47;23.30;1.00
26907;DHT22;14472;56.880;16.658;2022-07-21T05:45:13;23.30;1.00
26907;DHT22;14472;56.880;16.658;2022-07-21T05:47:39;23.40;1.00
26907;DHT22;14472;56.880;16.658;2022-07-21T05:50:06;23.50;1.00
26907;DHT22;14472;56.880;16.658;2022-07-21T05:52:32;23.60;1.00
26907;DHT22;14472;56.880;16.658;2022-07-21T05:54:58;23.60;1.00
26907;DHT22;14472;56.880;16.658;2022-07-21T05:57:23;23.70;1.00
26907;DHT22;14472;56.880;16.658;2022-07-21T05:59:49;23.70;1.00
26907;DHT22;14472;56.880;16.658;2022-07-21T06:02:15;23.90;1.00
26907;DHT22;14472;56.880;16.658;2022-07-21T06:04:41;23.90;1.00
26907;DHT22;14472;56.880;16.658;2022-07-21T06:07:07;24.10;1.00
26907;DHT22;14472;56.880;16.658;2022-07-21T06:09:33;24.10;1.00
26907;DHT22;14472;56.880;16.658;2022-07-21T06:12:00;24.20;1.00
26907;DHT22;14472;56.880;16.658;2022-07-21T06:14:26;24.30;1.00
26907;DHT22;14472;56.880;16.658;2022-07-21T06:16:52;24.40;1.00
26907;DHT22;14472;56.880;16.658;2022-07-21T06:19:18;24.50;1.00
26907;DHT22;14472;56.880;16.658;2022-07-21T06:21:44;24.60;1.00
26907;DHT22;14472;56.880;16.658;2022-07-21T06:24:11;24.70;1.00
26907;DHT22;14472;56.880;16.658;2022-07-21T06:26:37;24.80;1.00
26907;DHT22;14472;56.880;16.658;2022-07-21T06:29:06;24.90;1.00
26907;DHT22;14472;56.880;16.658;2022-07-21T06:31:33;25.00;1.00
26907;DHT22;14472;56.880;16.658;2022-07-21T06:33:59;25.10;1.00
26907;DHT22;14472;56.880;16.658;2022-07-21T06:36:25;25.20;1.00
26907;DHT22;14472;56.880;16.658;2022-07-21T06:38:51;25.40;1.00
26907;DHT22;14472;56.880;16.658;2022-07-21T06:41:17;25.50;1.00
26907;DHT22;14472;56.880;16.658;2022-07-21T06:43:43;25.70;1.00
26907;DHT22;14472;56.880;16.658;2022-07-21T06:46:08;25.80;1.00
26907;DHT22;14472;56.880;16.658;2022-07-21T06:48:34;25.90;1.00
26907;DHT22;14472;56.880;16.658;2022-07-21T06:51:00;26.10;1.00
26907;DHT22;14472;56.880;16.658;2022-07-21T06:53:26;26.20;1.00
26907;DHT22;14472;56.880;16.658;2022-07-21T06:55:52;26.40;1.00
26907;DHT22;14472;56.880;16.658;2022-07-21T06:58:23;26.40;1.00
26907;DHT22;14472;56.880;16.658;2022-07-21T07:00:53;26.40;1.00
26907;DHT22;14472;56.880;16.658;2022-07-21T07:03:19;26.40;1.00
26907;DHT22;14472;56.880;16.658;2022-07-21T07:05:47;26.40;1.00
26907;DHT22;14472;56.880;16.658;2022-07-21T07:08:13;26.50;1.00
26907;DHT22;14472;56.880;16.658;2022-07-21T07:10:40;26.60;1.00
26907;DHT22;14472;56.880;16.658;2022-07-21T07:13:06;26.80;1.00
26907;DHT22;14472;56.880;16.658;2022-07-21T07:15:31;26.80;1.00
26907;DHT22;14472;56.880;16.658;2022-07-21T07:17:57;27.00;1.00
26907;DHT22;14472;56.880;16.658;2022-07-21T07:20:23;27.10;1.00
26907;DHT22;14472;56.880;16.658;2022-07-21T07:22:49;27.20;1.00
26907;DHT22;14472;56.880;16.658;2022-07-21T07:25:15;27.20;1.00
26907;DHT22;14472;56.880;16.658;2022-07-21T07:27:46;27.40;1.00
26907;DHT22;14472;56.880;16.658;2022-07-21T07:30:12;27.40;1.00
26907;DHT22;14472;56.880;16.658;2022-07-21T07:32:38;27.60;1.00
26907;DHT22;14472;56.880;16.658;2022-07-21T07:35:06;27.70;1.00
26907;DHT22;14472;56.880;16.658;2022-07-21T07:37:34;27.80;1.00
26907;DHT22;14472;56.880;16.658;2022-07-21T07:40:02;27.90;1.00
26907;DHT22;14472;56.880;16.658;2022-07-21T07:42:28;28.00;1.00
26907;DHT22;14472;56.880;16.658;2022-07-21T07:44:53;28.10;1.00
26907;DHT22;14472;56.880;16.658;2022-07-21T07:47:19;28.20;1.00
26907;DHT22;14472;56.880;16.658;2022-07-21T07:49:45;28.30;1.00
26907;DHT22;14472;56.880;16.658;2022-07-21T07:52:13;28.50;1.00
26907;DHT22;14472;56.880;16.658;2022-07-21T07:54:38;28.60;1.00
26907;DHT22;14472;56.880;16.658;2022-07-21T07:57:04;28.80;1.00
26907;DHT22;14472;56.880;16.658;2022-07-21T07:59:30;28.90;1.00
26907;DHT22;14472;56.880;16.658;2022-07-21T08:01:57;29.10;1.00
26907;DHT22;14472;56.880;16.658;2022-07-21T08:04:23;29.20;1.00
26907;DHT22;14472;56.880;16.658;2022-07-21T08:06:48;29.20;1.00
26907;DHT22;14472;56.880;16.658;2022-07-21T08:09:14;29.30;1.00
26907;DHT22;14472;56.880;16.658;2022-07-21T08:11:40;29.20;1.00
26907;DHT22;14472;56.880;16.658;2022-07-21T08:14:06;29.20;1.00
26907;DHT22;14472;56.880;16.658;2022-07-21T08:16:34;29.20;1.00
26907;DHT22;14472;56.880;16.658;2022-07-21T08:18:59;29.30;1.00
26907;DHT22;14472;56.880;16.658;2022-07-21T08:21:25;29.40;1.00
26907;DHT22;14472;56.880;16.658;2022-07-21T08:23:56;29.40;1.00
26907;DHT22;14472;56.880;16.658;2022-07-21T08:26:23;29.40;1.00
26907;DHT22;14472;56.880;16.658;2022-07-21T08:28:50;29.40;1.00
26907;DHT22;14472;56.880;16.658;2022-07-21T08:31:16;29.40;1.00
26907;DHT22;14472;56.880;16.658;2022-07-21T08:33:42;29.50;1.00
26907;DHT22;14472;56.880;16.658;2022-07-21T08:36:07;29.50;1.00
26907;DHT22;14472;56.880;16.658;2022-07-21T08:38:33;29.60;1.00
26907;DHT22;14472;56.880;16.658;2022-07-21T08:40:59;29.60;1.00
26907;DHT22;14472;56.880;16.658;2022-07-21T08:43:25;29.70;1.00
26907;DHT22;14472;56.880;16.658;2022-07-21T08:45:52;29.80;1.00
26907;DHT22;14472;56.880;16.658;2022-07-21T08:48:23;29.80;1.00
26907;DHT22;14472;56.880;16.658;2022-07-21T08:50:50;29.90;1.00
26907;DHT22;14472;56.880;16.658;2022-07-21T08:53:16;30.00;1.00
26907;DHT22;14472;56.880;16.658;2022-07-21T08:55:42;30.10;1.00
26907;DHT22;14472;56.880;16.658;2022-07-21T08:58:12;30.20;1.00
26907;DHT22;14472;56.880;16.658;2022-07-21T09:00:40;30.40;1.00
26907;DHT22;14472;56.880;16.658;2022-07-21T09:08:36;30.70;1.00
26907;DHT22;14472;56.880;16.658;2022-07-21T09:11:25;30.70;1.00
26907;DHT22;14472;56.880;16.658;2022-07-21T09:14:16;30.80;1.00
26907;DHT22;14472;56.880;16.658;2022-07-21T09:16:58;31.00;1.00
26907;DHT22;14472;56.880;16.658;2022-07-21T09:19:31;31.00;1.00
26907;DHT22;14472;56.880;16.658;2022-07-21T09:22:01;31.10;1.00
26907;DHT22;14472;56.880;16.658;2022-07-21T09:24:33;31.30;1.00
26907;DHT22;14472;56.880;16.658;2022-07-21T09:29:47;31.30;1.00
26907;DHT22;14472;56.880;16.658;2022-07-21T09:32:18;31.40;1.00
26907;DHT22;14472;56.880;16.658;2022-07-21T09:34:47;31.60;1.00
26907;DHT22;14472;56.880;16.658;2022-07-21T09:37:14;31.80;1.00
26907;DHT22;14472;56.880;16.658;2022-07-21T09:44:58;31.70;1.00
26907;DHT22;14472;56.880;16.658;2022-07-21T09:47:26;31.80;1.00
26907;DHT22;14472;56.880;16.658;2022-07-21T09:49:53;31.80;1.00
26907;DHT22;14472;56.880;16.658;2022-07-21T09:52:37;31.90;1.00
26907;DHT22;14472;56.880;16.658;2022-07-21T09:57:32;32.10;1.00
26907;DHT22;14472;56.880;16.658;2022-07-21T09:59:58;32.20;1.00
26907;DHT22;14472;56.880;16.658;2022-07-21T10:02:29;32.30;1.00
26907;DHT22;14472;56.880;16.658;2022-07-21T10:05:03;32.60;1.00
26907;DHT22;14472;56.880;16.658;2022-07-21T10:07:30;32.80;1.00
26907;DHT22;14472;56.880;16.658;2022-07-21T10:09:57;32.90;1.00
26907;DHT22;14472;56.880;16.658;2022-07-21T10:12:24;33.10;1.00
26907;DHT22;14472;56.880;16.658;2022-07-21T10:14:50;33.20;1.00
26907;DHT22;14472;56.880;16.658;2022-07-21T10:17:18;33.20;1.00
26907;DHT22;14472;56.880;16.658;2022-07-21T10:25:23;33.40;1.00
26907;DHT22;14472;56.880;16.658;2022-07-21T10:28:19;33.40;1.00
26907;DHT22;14472;56.880;16.658;2022-07-21T10:30:56;33.40;1.00
26907;DHT22;14472;56.880;16.658;2022-07-21T10:36:09;33.50;1.00
26907;DHT22;14472;56.880;16.658;2022-07-21T10:38:36;33.50;1.00
26907;DHT22;14472;56.880;16.658;2022-07-21T10:41:05;33.50;1.00
26907;DHT22;14472;56.880;16.658;2022-07-21T10:45:58;33.80;1.00
26907;DHT22;14472;56.880;16.658;2022-07-21T10:51:10;34.00;1.00
26907;DHT22;14472;56.880;16.658;2022-07-21T10:53:36;34.10;1.00
26907;DHT22;14472;56.880;16.658;2022-07-21T10:56:03;34.20;1.00
26907;DHT22;14472;56.880;16.658;2022-07-21T10:58:33;34.10;1.00
26907;DHT22;14472;56.880;16.658;2022-07-21T11:03:42;34.10;1.00
26907;DHT22;14472;56.880;16.658;2022-07-21T11:11:34;34.20;1.00
26907;DHT22;14472;56.880;16.658;2022-07-21T12:01:06;34.70;1.00
26907;DHT22;14472;56.880;16.658;2022-07-21T12:03:32;34.70;1.00
26907;DHT22;14472;56.880;16.658;2022-07-21T12:05:59;34.60;1.00
26907;DHT22;14472;56.880;16.658;2022-07-21T12:08:25;34.70;1.00
26907;DHT22;14472;56.880;16.658;2022-07-21T12:11:06;34.70;1.00
26907;DHT22;14472;56.880;16.658;2022-07-21T12:13:54;34.60;1.00
26907;DHT22;14472;56.880;16.658;2022-07-21T12:16:21;34.60;1.00
26907;DHT22;14472;56.880;16.658;2022-07-21T12:19:09;34.70;1.00
26907;DHT22;14472;56.880;16.658;2022-07-21T12:21:53;34.80;1.00
26907;DHT22;14472;56.880;16.658;2022-07-21T12:24:20;34.80;1.00
26907;DHT22;14472;56.880;16.658;2022-07-21T12:26:50;34.90;1.00
26907;DHT22;14472;56.880;16.658;2022-07-21T12:29:26;35.00;1.00
26907;DHT22;14472;56.880;16.658;2022-07-21T12:31:52;35.00;1.00
26907;DHT22;14472;56.880;16.658;2022-07-21T12:34:21;35.10;1.00
26907;DHT22;14472;56.880;16.658;2022-07-21T12:36:49;35.20;1.00
26907;DHT22;14472;56.880;16.658;2022-07-21T12:39:19;35.10;1.00
26907;DHT22;14472;56.880;16.658;2022-07-21T12:42:10;35.20;1.00
26907;DHT22;14472;56.880;16.658;2022-07-21T12:44:38;35.40;1.00
26907;DHT22;14472;56.880;16.658;2022-07-21T12:47:21;35.50;1.00
26907;DHT22;14472;56.880;16.658;2022-07-21T12:50:03;35.50;1.00
26907;DHT22;14472;56.880;16.658;2022-07-21T12:52:29;35.60;1.00
26907;DHT22;14472;56.880;16.658;2022-07-21T12:54:56;35.60;1.00
26907;DHT22;14472;56.880;16.658;2022-07-21T12:57:29;35.60;1.00
26907;DHT22;14472;56.880;16.658;2022-07-21T12:59:55;35.70;1.00
26907;DHT22;14472;56.880;16.658;2022-07-21T13:02:22;35.80;1.00
26907;DHT22;14472;56.880;16.658;2022-07-21T13:04:48;35.80;1.00
26907;DHT22;14472;56.880;16.658;2022-07-21T13:07:14;35.90;1.00
26907;DHT22;14472;56.880;16.658;2022-07-21T13:09:39;35.90;1.00
26907;DHT22;14472;56.880;16.658;2022-07-21T13:12:05;35.90;1.00
26907;DHT22;14472;56.880;16.658;2022-07-21T13:14:32;36.00;1.00
26907;DHT22;14472;56.880;16.658;2022-07-21T13:16:58;36.00;1.00
26907;DHT22;14472;56.880;16.658;2022-07-21T13:19:25;35.90;1.00
26907;DHT22;14472;56.880;16.658;2022-07-21T13:21:51;35.90;1.00
26907;DHT22;14472;56.880;16.658;2022-07-21T13:24:18;35.70;1.00
26907;DHT22;14472;56.880;16.658;2022-07-21T13:26:44;35.60;1.00
26907;DHT22;14472;56.880;16.658;2022-07-21T13:29:10;35.60;1.00
26907;DHT22;14472;56.880;16.658;2022-07-21T13:31:35;35.60;1.00
26907;DHT22;14472;56.880;16.658;2022-07-21T13:34:03;35.40;1.00
26907;DHT22;14472;56.880;16.658;2022-07-21T13:36:32;35.30;1.00
26907;DHT22;14472;56.880;16.658;2022-07-21T13:38:58;35.20;1.00
26907;DHT22;14472;56.880;16.658;2022-07-21T13:41:24;35.10;1.00
26907;DHT22;14472;56.880;16.658;2022-07-21T13:43:51;35.10;1.00
26907;DHT22;14472;56.880;16.658;2022-07-21T13:46:17;35.20;1.00
26907;DHT22;14472;56.880;16.658;2022-07-21T13:48:43;35.20;1.00
26907;DHT22;14472;56.880;16.658;2022-07-21T13:51:11;35.10;1.00
26907;DHT22;14472;56.880;16.658;2022-07-21T13:53:39;35.10;1.00
26907;DHT22;14472;56.880;16.658;2022-07-21T13:56:05;35.20;1.00
26907;DHT22;14472;56.880;16.658;2022-07-21T13:58:31;35.20;1.00
26907;DHT22;14472;56.880;16.658;2022-07-21T14:00:58;35.10;1.00
26907;DHT22;14472;56.880;16.658;2022-07-21T14:03:24;35.20;1.00
26907;DHT22;14472;56.880;16.658;2022-07-21T14:05:50;35.10;1.00
26907;DHT22;14472;56.880;16.658;2022-07-21T14:08:15;35.00;1.00
26907;DHT22;14472;56.880;16.658;2022-07-21T14:10:41;35.00;1.00
26907;DHT22;14472;56.880;16.658;2022-07-21T14:13:07;34.80;1.00
26907;DHT22;14472;56.880;16.658;2022-07-21T14:15:33;34.80;1.00
26907;DHT22;14472;56.880;16.658;2022-07-21T14:17:58;34.80;1.00
26907;DHT22;14472;56.880;16.658;2022-07-21T14:20:25;34.80;1.00
26907;DHT22;14472;56.880;16.658;2022-07-21T14:22:51;34.70;1.00
26907;DHT22;14472;56.880;16.658;2022-07-21T14:25:17;34.60;1.00
26907;DHT22;14472;56.880;16.658;2022-07-21T14:27:47;34.60;1.00
26907;DHT22;14472;56.880;16.658;2022-07-21T14:30:13;34.50;1.00
26907;DHT22;14472;56.880;16.658;2022-07-21T14:32:38;34.50;1.00
26907;DHT22;14472;56.880;16.658;2022-07-21T14:35:04;34.50;1.00
26907;DHT22;14472;56.880;16.658;2022-07-21T14:37:30;34.50;1.00
26907;DHT22;14472;56.880;16.658;2022-07-21T14:39:56;34.60;1.00
26907;DHT22;14472;56.880;16.658;2022-07-21T14:42:22;34.60;1.00
26907;DHT22;14472;56.880;16.658;2022-07-21T14:44:50;34.60;1.00
26907;DHT22;14472;56.880;16.658;2022-07-21T14:47:16;34.60;1.00
26907;DHT22;14472;56.880;16.658;2022-07-21T14:49:42;34.50;1.00
26907;DHT22;14472;56.880;16.658;2022-07-21T14:52:08;34.40;1.00
26907;DHT22;14472;56.880;16.658;2022-07-21T14:54:35;34.40;1.00
26907;DHT22;14472;56.880;16.658;2022-07-21T14:57:01;34.40;1.00
26907;DHT22;14472;56.880;16.658;2022-07-21T14:59:27;34.40;1.00
26907;DHT22;14472;56.880;16.658;2022-07-21T15:01:52;34.40;1.00
26907;DHT22;14472;56.880;16.658;2022-07-21T15:04:18;34.40;1.00
26907;DHT22;14472;56.880;16.658;2022-07-21T15:06:46;34.40;1.00
26907;DHT22;14472;56.880;16.658;2022-07-21T15:09:11;34.40;1.00
26907;DHT22;14472;56.880;16.658;2022-07-21T15:11:37;34.50;1.00
26907;DHT22;14472;56.880;16.658;2022-07-21T15:14:03;34.50;1.00
26907;DHT22;14472;56.880;16.658;2022-07-21T15:16:29;34.60;1.00
26907;DHT22;14472;56.880;16.658;2022-07-21T15:18:55;34.60;1.00
26907;DHT22;14472;56.880;16.658;2022-07-21T15:21:21;34.50;1.00
26907;DHT22;14472;56.880;16.658;2022-07-21T15:23:46;34.40;1.00
26907;DHT22;14472;56.880;16.658;2022-07-21T15:26:12;34.40;1.00
26907;DHT22;14472;56.880;16.658;2022-07-21T15:28:38;34.30;1.00
26907;DHT22;14472;56.880;16.658;2022-07-21T15:31:04;34.10;1.00
26907;DHT22;14472;56.880;16.658;2022-07-21T15:33:29;34.10;1.00
26907;DHT22;14472;56.880;16.658;2022-07-21T15:35:55;34.10;1.00
26907;DHT22;14472;56.880;16.658;2022-07-21T15:38:22;34.10;1.00
26907;DHT22;14472;56.880;16.658;2022-07-21T15:40:48;34.20;1.00
26907;DHT22;14472;56.880;16.658;2022-07-21T15:43:14;34.10;1.00
26907;DHT22;14472;56.880;16.658;2022-07-21T15:45:40;34.20;1.00
26907;DHT22;14472;56.880;16.658;2022-07-21T15:48:07;34.30;1.00
26907;DHT22;14472;56.880;16.658;2022-07-21T15:50:33;34.30;1.00
26907;DHT22;14472;56.880;16.658;2022-07-21T15:52:59;34.20;1.00
26907;DHT22;14472;56.880;16.658;2022-07-21T15:55:25;34.20;1.00
26907;DHT22;14472;56.880;16.658;2022-07-21T15:57:51;34.10;1.00
26907;DHT22;14472;56.880;16.658;2022-07-21T16:00:17;34.20;1.00
26907;DHT22;14472;56.880;16.658;2022-07-21T16:02:44;34.10;1.00
26907;DHT22;14472;56.880;16.658;2022-07-21T16:05:13;34.10;1.00
26907;DHT22;14472;56.880;16.658;2022-07-21T16:07:40;34.10;1.00
26907;DHT22;14472;56.880;16.658;2022-07-21T16:10:07;34.10;1.00
26907;DHT22;14472;56.880;16.658;2022-07-21T16:12:32;34.10;1.00
26907;DHT22;14472;56.880;16.658;2022-07-21T16:14:58;34.10;1.00
26907;DHT22;14472;56.880;16.658;2022-07-21T16:17:24;34.00;1.00
26907;DHT22;14472;56.880;16.658;2022-07-21T16:19:50;34.10;1.00
26907;DHT22;14472;56.880;16.658;2022-07-21T16:22:16;34.00;1.00
26907;DHT22;14472;56.880;16.658;2022-07-21T16:24:41;33.80;1.00
26907;DHT22;14472;56.880;16.658;2022-07-21T16:27:07;33.90;1.00
26907;DHT22;14472;56.880;16.658;2022-07-21T16:29:34;33.80;1.00
26907;DHT22;14472;56.880;16.658;2022-07-21T16:32:00;33.90;1.00
26907;DHT22;14472;56.880;16.658;2022-07-21T16:34:28;33.80;1.00
26907;DHT22;14472;56.880;16.658;2022-07-21T16:36:54;33.90;1.00
26907;DHT22;14472;56.880;16.658;2022-07-21T16:39:21;33.80;1.00
26907;DHT22;14472;56.880;16.658;2022-07-21T16:41:47;33.80;1.00
26907;DHT22;14472;56.880;16.658;2022-07-21T16:44:14;33.60;1.00
26907;DHT22;14472;56.880;16.658;2022-07-21T16:46:45;33.60;1.00
26907;DHT22;14472;56.880;16.658;2022-07-21T16:49:12;33.60;1.00
26907;DHT22;14472;56.880;16.658;2022-07-21T16:51:38;33.50;1.00
26907;DHT22;14472;56.880;16.658;2022-07-21T16:54:04;33.50;1.00
26907;DHT22;14472;56.880;16.658;2022-07-21T16:56:30;33.40;1.00